Station History

Weather Underground - logo

Station Historical Data
Daily Summary for February 20, 2018 Units:  Both    English   Metric
« Previous Day
Next Day »
Daily Weekly Monthly Yearly Custom
  High: Low: Average:
Temperature: 55.9 °F /  13.3 °C 27.7 °F /  -2.4 °C 41.5 °F /  5.3 °C
Dew Point: 33.4 °F /  0.8 °C 22.8 °F /  -5.1 °C 28.4 °F /  -2 °C
Humidity: 89 % 32 % 63 %
Wind Speed: 5.8 mph /  9.3 km/h - 1 mph /  1.6 km/h
Wind Gust: 5.8 mph /  9.3 km/h - -
Wind:- - SSW
Pressure: 30.29 in /  1025.6 hPa 30.14 in /  1020.5 hPa -
Precipitation: 0.00 in /  0 mm    
Historical Graphs
 
 
Tabular Data for February 20, 2018
Time Temperature Dew Point Pressure Wind Wind Speed Wind Gust Humidity Rainfall Rate (Hourly)
00:01 32.3 °F /  0.2 °C 28.6 °F /  -1.9 °C 30.15 in /  1020.9 hPa Calm     86 % 0.00 in /  0 mm
00:06 32.3 °F /  0.2 °C 28.3 °F /  -2.1 °C 30.15 in /  1020.9 hPa Calm     85 % 0.00 in /  0 mm
00:11 32.3 °F /  0.2 °C 28.6 °F /  -1.9 °C 30.15 in /  1020.9 hPa Calm     86 % 0.00 in /  0 mm
00:16 32.1 °F /  0.1 °C 28.4 °F /  -2 °C 30.15 in /  1020.9 hPa Calm     86 % 0.00 in /  0 mm
00:21 32.0 °F /  0 °C 28.3 °F /  -2.1 °C 30.15 in /  1020.9 hPa Calm     86 % 0.00 in /  0 mm
00:26 32.0 °F /  0 °C 28.3 °F /  -2.1 °C 30.14 in /  1020.5 hPa Calm     86 % 0.00 in /  0 mm
00:31 31.9 °F /  -0.1 °C 27.9 °F /  -2.3 °C 30.15 in /  1020.9 hPa Calm     85 % 0.00 in /  0 mm
00:36 31.8 °F /  -0.1 °C 27.8 °F /  -2.3 °C 30.15 in /  1020.9 hPa Calm     85 % 0.00 in /  0 mm
00:41 31.6 °F /  -0.2 °C 27.6 °F /  -2.4 °C 30.15 in /  1020.9 hPa Calm     85 % 0.00 in /  0 mm
00:46 31.5 °F /  -0.3 °C 27.8 °F /  -2.3 °C 30.15 in /  1020.9 hPa Calm     86 % 0.00 in /  0 mm
00:51 31.3 °F /  -0.4 °C 27.6 °F /  -2.4 °C 30.15 in /  1020.9 hPa Calm     86 % 0.00 in /  0 mm
00:56 31.0 °F /  -0.6 °C 27.3 °F /  -2.6 °C 30.15 in /  1020.9 hPa Calm     86 % 0.00 in /  0 mm
01:01 30.8 °F /  -0.7 °C 27.4 °F /  -2.6 °C 30.15 in /  1020.9 hPa Calm     87 % 0.00 in /  0 mm
01:06 30.6 °F /  -0.8 °C 27.2 °F /  -2.7 °C 30.16 in /  1021.2 hPa Calm     87 % 0.00 in /  0 mm
01:11 30.4 °F /  -0.9 °C 27.0 °F /  -2.8 °C 30.16 in /  1021.2 hPa Calm     87 % 0.00 in /  0 mm
01:16 30.3 °F /  -0.9 °C 26.9 °F /  -2.8 °C 30.16 in /  1021.2 hPa Calm     87 % 0.00 in /  0 mm
01:21 30.3 °F /  -0.9 °C 26.9 °F /  -2.8 °C 30.16 in /  1021.2 hPa Calm     87 % 0.00 in /  0 mm
01:26 30.4 °F /  -0.9 °C 27.0 °F /  -2.8 °C 30.16 in /  1021.2 hPa Calm     87 % 0.00 in /  0 mm
01:31 30.5 °F /  -0.8 °C 27.1 °F /  -2.7 °C 30.16 in /  1021.2 hPa Calm     87 % 0.00 in /  0 mm
01:36 30.3 °F /  -0.9 °C 26.9 °F /  -2.8 °C 30.16 in /  1021.2 hPa Calm     87 % 0.00 in /  0 mm
01:41 30.3 °F /  -0.9 °C 27.2 °F /  -2.7 °C 30.16 in /  1021.2 hPa Calm     88 % 0.00 in /  0 mm
01:46 30.2 °F /  -1 °C 26.8 °F /  -2.9 °C 30.16 in /  1021.2 hPa Calm     87 % 0.00 in /  0 mm
01:51 30.3 °F /  -0.9 °C 26.9 °F /  -2.8 °C 30.16 in /  1021.2 hPa Calm     87 % 0.00 in /  0 mm
01:56 30.4 °F /  -0.9 °C 27.0 °F /  -2.8 °C 30.16 in /  1021.2 hPa Calm     87 % 0.00 in /  0 mm
02:01 30.6 °F /  -0.8 °C 26.9 °F /  -2.8 °C 30.16 in /  1021.2 hPa Calm     86 % 0.00 in /  0 mm
02:06 30.9 °F /  -0.6 °C 26.9 °F /  -2.8 °C 30.16 in /  1021.2 hPa Calm     85 % 0.00 in /  0 mm
02:11 30.9 °F /  -0.6 °C 26.9 °F /  -2.8 °C 30.17 in /  1021.6 hPa Calm     85 % 0.00 in /  0 mm
02:16 30.5 °F /  -0.8 °C 26.5 °F /  -3.1 °C 30.17 in /  1021.6 hPa Calm     85 % 0.00 in /  0 mm
02:21 30.2 °F /  -1 °C 26.2 °F /  -3.2 °C 30.17 in /  1021.6 hPa Calm     85 % 0.00 in /  0 mm
02:26 30.2 °F /  -1 °C 26.5 °F /  -3.1 °C 30.17 in /  1021.6 hPa Calm     86 % 0.00 in /  0 mm
02:32 30.0 °F /  -1.1 °C 26.3 °F /  -3.2 °C 30.17 in /  1021.6 hPa Calm     86 % 0.00 in /  0 mm
02:37 30.3 °F /  -0.9 °C 26.9 °F /  -2.8 °C 30.17 in /  1021.6 hPa Calm     87 % 0.00 in /  0 mm
02:42 30.4 °F /  -0.9 °C 26.7 °F /  -2.9 °C 30.17 in /  1021.6 hPa Calm     86 % 0.00 in /  0 mm
02:47 30.3 °F /  -0.9 °C 26.6 °F /  -3 °C 30.17 in /  1021.6 hPa Calm     86 % 0.00 in /  0 mm
02:52 30.4 °F /  -0.9 °C 26.7 °F /  -2.9 °C 30.17 in /  1021.6 hPa Calm     86 % 0.00 in /  0 mm
02:57 30.6 °F /  -0.8 °C 26.6 °F /  -3 °C 30.17 in /  1021.6 hPa Calm     85 % 0.00 in /  0 mm
03:02 30.6 °F /  -0.8 °C 26.6 °F /  -3 °C 30.18 in /  1021.9 hPa Calm     85 % 0.00 in /  0 mm
03:07 30.3 °F /  -0.9 °C 26.3 °F /  -3.2 °C 30.18 in /  1021.9 hPa Calm     85 % 0.00 in /  0 mm
03:12 29.9 °F /  -1.2 °C 26.2 °F /  -3.2 °C 30.18 in /  1021.9 hPa Calm     86 % 0.00 in /  0 mm
03:17 29.6 °F /  -1.3 °C 26.2 °F /  -3.2 °C 30.18 in /  1021.9 hPa Calm     87 % 0.00 in /  0 mm
03:22 29.6 °F /  -1.3 °C 26.5 °F /  -3.1 °C 30.18 in /  1021.9 hPa Calm     88 % 0.00 in /  0 mm
03:27 29.6 °F /  -1.3 °C 26.5 °F /  -3.1 °C 30.18 in /  1021.9 hPa Calm     88 % 0.00 in /  0 mm
03:32 29.5 °F /  -1.4 °C 26.4 °F /  -3.1 °C 30.18 in /  1021.9 hPa Calm     88 % 0.00 in /  0 mm
03:37 29.6 °F /  -1.3 °C 26.5 °F /  -3.1 °C 30.18 in /  1021.9 hPa Calm     88 % 0.00 in /  0 mm
03:42 29.6 °F /  -1.3 °C 26.5 °F /  -3.1 °C 30.18 in /  1021.9 hPa Calm     88 % 0.00 in /  0 mm
03:47 29.7 °F /  -1.3 °C 26.3 °F /  -3.2 °C 30.18 in /  1021.9 hPa Calm     87 % 0.00 in /  0 mm
03:52 29.6 °F /  -1.3 °C 26.2 °F /  -3.2 °C 30.18 in /  1021.9 hPa Calm     87 % 0.00 in /  0 mm
03:57 29.7 °F /  -1.3 °C 26.3 °F /  -3.2 °C 30.18 in /  1021.9 hPa Calm     87 % 0.00 in /  0 mm
04:02 29.8 °F /  -1.2 °C 26.4 °F /  -3.1 °C 30.18 in /  1021.9 hPa Calm     87 % 0.00 in /  0 mm
04:07 30.0 °F /  -1.1 °C 26.3 °F /  -3.2 °C 30.18 in /  1021.9 hPa Calm     86 % 0.00 in /  0 mm
04:12 30.1 °F /  -1.1 °C 26.4 °F /  -3.1 °C 30.19 in /  1022.2 hPa Calm     86 % 0.00 in /  0 mm
04:17 30.1 °F /  -1.1 °C 26.1 °F /  -3.3 °C 30.19 in /  1022.2 hPa Calm     85 % 0.00 in /  0 mm
04:22 30.1 °F /  -1.1 °C 26.1 °F /  -3.3 °C 30.19 in /  1022.2 hPa Calm     85 % 0.00 in /  0 mm
04:27 30.2 °F /  -1 °C 26.2 °F /  -3.2 °C 30.19 in /  1022.2 hPa Calm     85 % 0.00 in /  0 mm
04:32 30.2 °F /  -1 °C 26.2 °F /  -3.2 °C 30.19 in /  1022.2 hPa Calm     85 % 0.00 in /  0 mm
04:37 30.0 °F /  -1.1 °C 26.0 °F /  -3.3 °C 30.20 in /  1022.6 hPa Calm     85 % 0.00 in /  0 mm
04:42 29.6 °F /  -1.3 °C 25.6 °F /  -3.6 °C 30.20 in /  1022.6 hPa Calm     85 % 0.00 in /  0 mm
04:47 29.2 °F /  -1.6 °C 25.5 °F /  -3.6 °C 30.20 in /  1022.6 hPa Calm     86 % 0.00 in /  0 mm
04:52 29.0 °F /  -1.7 °C 25.6 °F /  -3.6 °C 30.20 in /  1022.6 hPa Calm     87 % 0.00 in /  0 mm
04:57 28.9 °F /  -1.7 °C 25.8 °F /  -3.4 °C 30.20 in /  1022.6 hPa Calm     88 % 0.00 in /  0 mm
05:02 28.7 °F /  -1.8 °C 25.6 °F /  -3.6 °C 30.20 in /  1022.6 hPa Calm     88 % 0.00 in /  0 mm
05:07 28.5 °F /  -1.9 °C 25.4 °F /  -3.7 °C 30.20 in /  1022.6 hPa Calm     88 % 0.00 in /  0 mm
05:12 28.6 °F /  -1.9 °C 25.8 °F /  -3.4 °C 30.20 in /  1022.6 hPa Calm     89 % 0.00 in /  0 mm
05:17 28.7 °F /  -1.8 °C 25.9 °F /  -3.4 °C 30.20 in /  1022.6 hPa Calm     89 % 0.00 in /  0 mm
05:22 28.8 °F /  -1.8 °C 25.7 °F /  -3.5 °C 30.20 in /  1022.6 hPa Calm     88 % 0.00 in /  0 mm
05:27 28.8 °F /  -1.8 °C 25.4 °F /  -3.7 °C 30.21 in /  1022.9 hPa Calm     87 % 0.00 in /  0 mm
05:32 28.8 °F /  -1.8 °C 25.4 °F /  -3.7 °C 30.21 in /  1022.9 hPa Calm     87 % 0.00 in /  0 mm
05:37 28.8 °F /  -1.8 °C 25.4 °F /  -3.7 °C 30.21 in /  1022.9 hPa Calm     87 % 0.00 in /  0 mm
05:42 28.6 °F /  -1.9 °C 25.2 °F /  -3.8 °C 30.21 in /  1022.9 hPa Calm     87 % 0.00 in /  0 mm
05:47 28.5 °F /  -1.9 °C 25.1 °F /  -3.8 °C 30.21 in /  1022.9 hPa Calm     87 % 0.00 in /  0 mm
05:52 28.3 °F /  -2.1 °C 25.2 °F /  -3.8 °C 30.21 in /  1022.9 hPa Calm     88 % 0.00 in /  0 mm
05:57 28.3 °F /  -2.1 °C 25.2 °F /  -3.8 °C 30.22 in /  1023.2 hPa Calm     88 % 0.00 in /  0 mm
06:02 28.3 °F /  -2.1 °C 25.2 °F /  -3.8 °C 30.22 in /  1023.2 hPa Calm     88 % 0.00 in /  0 mm
06:07 28.1 °F /  -2.2 °C 25.0 °F /  -3.9 °C 30.22 in /  1023.2 hPa Calm     88 % 0.00 in /  0 mm
06:12 28.1 °F /  -2.2 °C 25.0 °F /  -3.9 °C 30.22 in /  1023.2 hPa Calm     88 % 0.00 in /  0 mm
06:17 28.1 °F /  -2.2 °C 25.0 °F /  -3.9 °C 30.23 in /  1023.6 hPa Calm     88 % 0.00 in /  0 mm
06:22 27.8 °F /  -2.3 °C 24.7 °F /  -4.1 °C 30.23 in /  1023.6 hPa Calm     88 % 0.00 in /  0 mm
06:27 27.7 °F /  -2.4 °C 24.6 °F /  -4.1 °C 30.23 in /  1023.6 hPa Calm     88 % 0.00 in /  0 mm
06:32 27.7 °F /  -2.4 °C 24.6 °F /  -4.1 °C 30.23 in /  1023.6 hPa Calm     88 % 0.00 in /  0 mm
06:37 27.7 °F /  -2.4 °C 24.6 °F /  -4.1 °C 30.23 in /  1023.6 hPa Calm     88 % 0.00 in /  0 mm
06:42 27.8 °F /  -2.3 °C 24.7 °F /  -4.1 °C 30.24 in /  1023.9 hPa Calm     88 % 0.00 in /  0 mm
06:47 28.0 °F /  -2.2 °C 24.9 °F /  -3.9 °C 30.24 in /  1023.9 hPa Calm     88 % 0.00 in /  0 mm
06:52 28.1 °F /  -2.2 °C 25.0 °F /  -3.9 °C 30.24 in /  1023.9 hPa Calm     88 % 0.00 in /  0 mm
06:57 28.1 °F /  -2.2 °C 25.0 °F /  -3.9 °C 30.24 in /  1023.9 hPa Calm     88 % 0.00 in /  0 mm
07:02 28.1 °F /  -2.2 °C 25.0 °F /  -3.9 °C 30.25 in /  1024.3 hPa Calm     88 % 0.00 in /  0 mm
07:07 28.2 °F /  -2.1 °C 25.1 °F /  -3.8 °C 30.25 in /  1024.3 hPa Calm     88 % 0.00 in /  0 mm
07:12 28.4 °F /  -2 °C 25.3 °F /  -3.7 °C 30.25 in /  1024.3 hPa Calm     88 % 0.00 in /  0 mm
07:17 28.7 °F /  -1.8 °C 25.3 °F /  -3.7 °C 30.25 in /  1024.3 hPa Calm     87 % 0.00 in /  0 mm
07:27 29.3 °F /  -1.5 °C 25.9 °F /  -3.4 °C 30.26 in /  1024.6 hPa Calm     87 % 0.00 in /  0 mm
07:32 29.8 °F /  -1.2 °C 26.4 °F /  -3.1 °C 30.26 in /  1024.6 hPa Calm     87 % 0.00 in /  0 mm
07:37 30.4 °F /  -0.9 °C 26.7 °F /  -2.9 °C 30.26 in /  1024.6 hPa Calm     86 % 0.00 in /  0 mm
07:42 31.6 °F /  -0.2 °C 27.9 °F /  -2.3 °C 30.27 in /  1024.9 hPa Calm     86 % 0.00 in /  0 mm
07:47 33.2 °F /  0.7 °C 28.6 °F /  -1.9 °C 30.27 in /  1024.9 hPa ENE 1.2 mph /  1.9 km/h   83 % 0.00 in /  0 mm
07:52 34.5 °F /  1.4 °C 29.0 °F /  -1.7 °C 30.27 in /  1024.9 hPa Calm     80 % 0.00 in /  0 mm
07:57 35.7 °F /  2.1 °C 29.5 °F /  -1.4 °C 30.27 in /  1024.9 hPa SE 1.2 mph /  1.9 km/h 1.2 mph /  1.9 km/h 78 % 0.00 in /  0 mm
08:02 36.6 °F /  2.6 °C 29.7 °F /  -1.3 °C 30.28 in /  1025.3 hPa Calm     76 % 0.00 in /  0 mm
08:07 37.3 °F /  2.9 °C 29.8 °F /  -1.2 °C 30.28 in /  1025.3 hPa SSE 1.2 mph /  1.9 km/h 1.2 mph /  1.9 km/h 74 % 0.00 in /  0 mm
08:12 38.0 °F /  3.3 °C 30.1 °F /  -1.1 °C 30.28 in /  1025.3 hPa Calm     73 % 0.00 in /  0 mm
08:17 38.6 °F /  3.7 °C 30.0 °F /  -1.1 °C 30.28 in /  1025.3 hPa ESE 2.3 mph /  3.7 km/h 2.3 mph /  3.7 km/h 71 % 0.00 in /  0 mm
08:22 39.0 °F /  3.9 °C 30.0 °F /  -1.1 °C 30.28 in /  1025.3 hPa East 1.2 mph /  1.9 km/h   70 % 0.00 in /  0 mm
08:27 39.5 °F /  4.2 °C 29.8 °F /  -1.2 °C 30.28 in /  1025.3 hPa SSE 2.3 mph /  3.7 km/h 2.3 mph /  3.7 km/h 68 % 0.00 in /  0 mm
08:32 39.9 °F /  4.4 °C 30.2 °F /  -1 °C 30.28 in /  1025.3 hPa Calm     68 % 0.00 in /  0 mm
08:37 40.6 °F /  4.8 °C 30.1 °F /  -1.1 °C 30.29 in /  1025.6 hPa SSE 2.3 mph /  3.7 km/h 2.3 mph /  3.7 km/h 66 % 0.00 in /  0 mm
08:42 41.2 °F /  5.1 °C 30.3 °F /  -0.9 °C 30.29 in /  1025.6 hPa SSE 1.2 mph /  1.9 km/h 1.2 mph /  1.9 km/h 65 % 0.00 in /  0 mm
08:47 41.8 °F /  5.4 °C 30.1 °F /  -1.1 °C 30.29 in /  1025.6 hPa SSW 2.0 mph /  3.2 km/h 2.0 mph /  3.2 km/h 63 % 0.00 in /  0 mm
08:53 42.3 °F /  5.7 °C 30.2 °F /  -1 °C 30.29 in /  1025.6 hPa South 3.5 mph /  5.6 km/h 3.5 mph /  5.6 km/h 62 % 0.00 in /  0 mm
08:58 42.9 °F /  6.1 °C 30.4 °F /  -0.9 °C 30.29 in /  1025.6 hPa SSE 1.0 mph /  1.6 km/h 1.0 mph /  1.6 km/h 61 % 0.00 in /  0 mm
09:03 43.4 °F /  6.3 °C 30.4 °F /  -0.9 °C 30.29 in /  1025.6 hPa Calm     60 % 0.00 in /  0 mm
09:08 43.6 °F /  6.4 °C 29.8 °F /  -1.2 °C 30.29 in /  1025.6 hPa Calm     58 % 0.00 in /  0 mm
09:13 44.0 °F /  6.7 °C 29.7 °F /  -1.3 °C 30.28 in /  1025.3 hPa South 3.5 mph /  5.6 km/h 3.5 mph /  5.6 km/h 57 % 0.00 in /  0 mm
09:18 44.2 °F /  6.8 °C 29.9 °F /  -1.2 °C 30.28 in /  1025.3 hPa SE 2.3 mph /  3.7 km/h 2.3 mph /  3.7 km/h 57 % 0.00 in /  0 mm
09:23 44.7 °F /  7.1 °C 30.0 °F /  -1.1 °C 30.28 in /  1025.3 hPa SSE 2.3 mph /  3.7 km/h 2.3 mph /  3.7 km/h 56 % 0.00 in /  0 mm
09:28 45.2 °F /  7.3 °C 30.0 °F /  -1.1 °C 30.28 in /  1025.3 hPa SSW 2.0 mph /  3.2 km/h 2.0 mph /  3.2 km/h 55 % 0.00 in /  0 mm
09:33 45.5 °F /  7.5 °C 30.3 °F /  -0.9 °C 30.28 in /  1025.3 hPa SSE 2.3 mph /  3.7 km/h 2.3 mph /  3.7 km/h 55 % 0.00 in /  0 mm
09:38 45.5 °F /  7.5 °C 29.3 °F /  -1.5 °C 30.28 in /  1025.3 hPa SSE 3.5 mph /  5.6 km/h 3.5 mph /  5.6 km/h 53 % 0.00 in /  0 mm
09:43 45.7 °F /  7.6 °C 30.0 °F /  -1.1 °C 30.28 in /  1025.3 hPa SE 3.5 mph /  5.6 km/h 3.5 mph /  5.6 km/h 54 % 0.00 in /  0 mm
09:48 46.0 °F /  7.8 °C 29.3 °F /  -1.5 °C 30.28 in /  1025.3 hPa SSE 4.6 mph /  7.4 km/h 4.6 mph /  7.4 km/h 52 % 0.00 in /  0 mm
09:53 46.5 °F /  8.1 °C 30.3 °F /  -0.9 °C 30.28 in /  1025.3 hPa South 4.0 mph /  6.4 km/h 4.0 mph /  6.4 km/h 53 % 0.00 in /  0 mm
09:58 46.8 °F /  8.2 °C 30.1 °F /  -1.1 °C 30.28 in /  1025.3 hPa South 2.3 mph /  3.7 km/h 2.3 mph /  3.7 km/h 52 % 0.00 in /  0 mm
10:03 47.1 °F /  8.4 °C 30.4 °F /  -0.9 °C 30.28 in /  1025.3 hPa NW 3.5 mph /  5.6 km/h 3.5 mph /  5.6 km/h 52 % 0.00 in /  0 mm
10:08 47.3 °F /  8.5 °C 30.5 °F /  -0.8 °C 30.28 in /  1025.3 hPa West 3.5 mph /  5.6 km/h 3.5 mph /  5.6 km/h 52 % 0.00 in /  0 mm
10:13 47.2 °F /  8.4 °C 30.9 °F /  -0.6 °C 30.28 in /  1025.3 hPa South 2.3 mph /  3.7 km/h 2.3 mph /  3.7 km/h 53 % 0.00 in /  0 mm
10:18 47.5 °F /  8.6 °C 30.3 °F /  -0.9 °C 30.28 in /  1025.3 hPa SE 3.0 mph /  4.8 km/h 3.0 mph /  4.8 km/h 51 % 0.00 in /  0 mm
10:23 47.6 °F /  8.7 °C 30.8 °F /  -0.7 °C 30.28 in /  1025.3 hPa SSE 3.5 mph /  5.6 km/h 3.5 mph /  5.6 km/h 52 % 0.00 in /  0 mm
10:28 48.2 °F /  9 °C 30.9 °F /  -0.6 °C 30.28 in /  1025.3 hPa SE 5.8 mph /  9.3 km/h 5.8 mph /  9.3 km/h 51 % 0.00 in /  0 mm
10:33 48.2 °F /  9 °C 31.4 °F /  -0.3 °C 30.27 in /  1024.9 hPa ENE 3.5 mph /  5.6 km/h 3.5 mph /  5.6 km/h 52 % 0.00 in /  0 mm
10:38 48.4 °F /  9.1 °C 31.6 °F /  -0.2 °C 30.27 in /  1024.9 hPa SSW 1.0 mph /  1.6 km/h 1.0 mph /  1.6 km/h 52 % 0.00 in /  0 mm
10:43 48.8 °F /  9.3 °C 31.5 °F /  -0.3 °C 30.27 in /  1024.9 hPa South 3.0 mph /  4.8 km/h 3.0 mph /  4.8 km/h 51 % 0.00 in /  0 mm
10:48 49.3 °F /  9.6 °C 31.4 °F /  -0.3 °C 30.27 in /  1024.9 hPa SW 4.6 mph /  7.4 km/h 4.6 mph /  7.4 km/h 50 % 0.00 in /  0 mm
10:53 50.0 °F /  10 °C 31.6 °F /  -0.2 °C 30.27 in /  1024.9 hPa SSW 3.5 mph /  5.6 km/h 3.5 mph /  5.6 km/h 49 % 0.00 in /  0 mm
10:58 50.4 °F /  10.2 °C 31.4 °F /  -0.3 °C 30.27 in /  1024.9 hPa SSE 3.5 mph /  5.6 km/h 3.5 mph /  5.6 km/h 48 % 0.00 in /  0 mm
11:03 50.4 °F /  10.2 °C 30.9 °F /  -0.6 °C 30.27 in /  1024.9 hPa South 1.2 mph /  1.9 km/h 1.2 mph /  1.9 km/h 47 % 0.00 in /  0 mm
11:08 50.6 °F /  10.3 °C 31.6 °F /  -0.2 °C 30.26 in /  1024.6 hPa East 3.5 mph /  5.6 km/h 3.5 mph /  5.6 km/h 48 % 0.00 in /  0 mm
11:13 50.9 °F /  10.5 °C 31.4 °F /  -0.3 °C 30.26 in /  1024.6 hPa South 4.6 mph /  7.4 km/h 4.6 mph /  7.4 km/h 47 % 0.00 in /  0 mm
11:18 50.9 °F /  10.5 °C 31.4 °F /  -0.3 °C 30.26 in /  1024.6 hPa SE 3.5 mph /  5.6 km/h 3.5 mph /  5.6 km/h 47 % 0.00 in /  0 mm
11:23 51.3 °F /  10.7 °C 32.3 °F /  0.2 °C 30.26 in /  1024.6 hPa SSE 2.3 mph /  3.7 km/h 2.3 mph /  3.7 km/h 48 % 0.00 in /  0 mm
11:28 51.7 °F /  10.9 °C 31.0 °F /  -0.6 °C 30.26 in /  1024.6 hPa SSE 3.5 mph /  5.6 km/h 3.5 mph /  5.6 km/h 45 % 0.00 in /  0 mm
11:33 52.1 °F /  11.2 °C 32.5 °F /  0.3 °C 30.26 in /  1024.6 hPa NNW 1.2 mph /  1.9 km/h   47 % 0.00 in /  0 mm
11:38 52.1 °F /  11.2 °C 30.8 °F /  -0.7 °C 30.25 in /  1024.3 hPa South 3.0 mph /  4.8 km/h 3.0 mph /  4.8 km/h 44 % 0.00 in /  0 mm
11:43 52.1 °F /  11.2 °C 31.4 °F /  -0.3 °C 30.25 in /  1024.3 hPa ESE 3.0 mph /  4.8 km/h 3.0 mph /  4.8 km/h 45 % 0.00 in /  0 mm
11:48 52.9 °F /  11.6 °C 31.6 °F /  -0.2 °C 30.25 in /  1024.3 hPa ENE 4.0 mph /  6.4 km/h 4.0 mph /  6.4 km/h 44 % 0.00 in /  0 mm
11:53 53.2 °F /  11.8 °C 30.7 °F /  -0.7 °C 30.25 in /  1024.3 hPa South 4.6 mph /  7.4 km/h 4.6 mph /  7.4 km/h 42 % 0.00 in /  0 mm
11:54 53.2 °F /  11.8 °C 30.7 °F /  -0.7 °C 30.25 in /  1024.3 hPa SSE 2.3 mph /  3.7 km/h 2.3 mph /  3.7 km/h 42 % 0.00 in /  0 mm
11:59 52.8 °F /  11.6 °C 30.9 °F /  -0.6 °C 30.25 in /  1024.3 hPa NNW 3.5 mph /  5.6 km/h 3.5 mph /  5.6 km/h 43 % 0.00 in /  0 mm
12:04 52.7 °F /  11.5 °C 29.6 °F /  -1.3 °C 30.25 in /  1024.3 hPa NW 5.8 mph /  9.3 km/h 5.8 mph /  9.3 km/h 41 % 0.00 in /  0 mm
12:09 52.7 °F /  11.5 °C 31.4 °F /  -0.3 °C 30.24 in /  1023.9 hPa SSE 1.2 mph /  1.9 km/h 1.2 mph /  1.9 km/h 44 % 0.00 in /  0 mm
12:14 53.2 °F /  11.8 °C 30.1 °F /  -1.1 °C 30.24 in /  1023.9 hPa SSW 5.8 mph /  9.3 km/h 5.8 mph /  9.3 km/h 41 % 0.00 in /  0 mm
12:19 53.6 °F /  12 °C 30.4 °F /  -0.9 °C 30.24 in /  1023.9 hPa NNW 3.5 mph /  5.6 km/h 3.5 mph /  5.6 km/h 41 % 0.00 in /  0 mm
12:24 53.3 °F /  11.8 °C 30.8 °F /  -0.7 °C 30.23 in /  1023.6 hPa Calm     42 % 0.00 in /  0 mm
12:25 53.4 °F /  11.9 °C 30.9 °F /  -0.6 °C 30.23 in /  1023.6 hPa Calm     42 % 0.00 in /  0 mm
12:30 53.5 °F /  11.9 °C 29.1 °F /  -1.6 °C 30.23 in /  1023.6 hPa NW 2.3 mph /  3.7 km/h   39 % 0.00 in /  0 mm
12:35 53.6 °F /  12 °C 27.9 °F /  -2.3 °C 30.23 in /  1023.6 hPa NNW 3.5 mph /  5.6 km/h 3.5 mph /  5.6 km/h 37 % 0.00 in /  0 mm
12:40 53.5 °F /  11.9 °C 27.8 °F /  -2.3 °C 30.23 in /  1023.6 hPa Calm     37 % 0.00 in /  0 mm
12:45 54.0 °F /  12.2 °C 28.9 °F /  -1.7 °C 30.23 in /  1023.6 hPa SSE 3.5 mph /  5.6 km/h 3.5 mph /  5.6 km/h 38 % 0.00 in /  0 mm
12:50 54.3 °F /  12.4 °C 29.8 °F /  -1.2 °C 30.22 in /  1023.2 hPa NW 1.2 mph /  1.9 km/h   39 % 0.00 in /  0 mm
12:55 54.2 °F /  12.3 °C 27.8 °F /  -2.3 °C 30.22 in /  1023.2 hPa WSW 3.5 mph /  5.6 km/h 3.5 mph /  5.6 km/h 36 % 0.00 in /  0 mm
13:00 54.4 °F /  12.4 °C 28.0 °F /  -2.2 °C 30.22 in /  1023.2 hPa SSE 4.0 mph /  6.4 km/h 4.0 mph /  6.4 km/h 36 % 0.00 in /  0 mm
13:05 54.7 °F /  12.6 °C 27.6 °F /  -2.4 °C 30.22 in /  1023.2 hPa SSE 3.5 mph /  5.6 km/h 3.5 mph /  5.6 km/h 35 % 0.00 in /  0 mm
13:10 55.0 °F /  12.8 °C 27.8 °F /  -2.3 °C 30.21 in /  1022.9 hPa SE 3.5 mph /  5.6 km/h 3.5 mph /  5.6 km/h 35 % 0.00 in /  0 mm
13:15 55.3 °F /  12.9 °C 28.1 °F /  -2.2 °C 30.21 in /  1022.9 hPa SSE 3.5 mph /  5.6 km/h 3.5 mph /  5.6 km/h 35 % 0.00 in /  0 mm
13:20 55.0 °F /  12.8 °C 27.1 °F /  -2.7 °C 30.21 in /  1022.9 hPa NNW 3.5 mph /  5.6 km/h 3.5 mph /  5.6 km/h 34 % 0.00 in /  0 mm
13:25 55.0 °F /  12.8 °C 26.4 °F /  -3.1 °C 30.20 in /  1022.6 hPa WNW 3.5 mph /  5.6 km/h 3.5 mph /  5.6 km/h 33 % 0.00 in /  0 mm
13:30 54.5 °F /  12.5 °C 27.4 °F /  -2.6 °C 30.20 in /  1022.6 hPa South 5.8 mph /  9.3 km/h 5.8 mph /  9.3 km/h 35 % 0.00 in /  0 mm
13:35 54.6 °F /  12.6 °C 26.0 °F /  -3.3 °C 30.20 in /  1022.6 hPa WNW 2.3 mph /  3.7 km/h 2.3 mph /  3.7 km/h 33 % 0.00 in /  0 mm
13:40 54.7 °F /  12.6 °C 28.2 °F /  -2.1 °C 30.20 in /  1022.6 hPa SSE 2.3 mph /  3.7 km/h 2.3 mph /  3.7 km/h 36 % 0.00 in /  0 mm
13:45 55.1 °F /  12.8 °C 27.9 °F /  -2.3 °C 30.20 in /  1022.6 hPa ESE 3.5 mph /  5.6 km/h 3.5 mph /  5.6 km/h 35 % 0.00 in /  0 mm
13:50 55.0 °F /  12.8 °C 27.8 °F /  -2.3 °C 30.20 in /  1022.6 hPa North 3.5 mph /  5.6 km/h 3.5 mph /  5.6 km/h 35 % 0.00 in /  0 mm
13:55 54.6 °F /  12.6 °C 27.5 °F /  -2.5 °C 30.20 in /  1022.6 hPa NW 2.3 mph /  3.7 km/h   35 % 0.00 in /  0 mm
14:00 54.7 °F /  12.6 °C 28.2 °F /  -2.1 °C 30.20 in /  1022.6 hPa SE 5.8 mph /  9.3 km/h 5.8 mph /  9.3 km/h 36 % 0.00 in /  0 mm
14:05 55.3 °F /  12.9 °C 27.4 °F /  -2.6 °C 30.20 in /  1022.6 hPa SSE 2.3 mph /  3.7 km/h 2.3 mph /  3.7 km/h 34 % 0.00 in /  0 mm
14:10 55.9 °F /  13.3 °C 29.3 °F /  -1.5 °C 30.20 in /  1022.6 hPa SSW 1.2 mph /  1.9 km/h 1.3 mph /  2.1 km/h 36 % 0.00 in /  0 mm
14:15 54.7 °F /  12.6 °C 26.1 °F /  -3.3 °C 30.20 in /  1022.6 hPa NNW 2.3 mph /  3.7 km/h 2.3 mph /  3.7 km/h 33 % 0.00 in /  0 mm
14:20 54.6 °F /  12.6 °C 28.2 °F /  -2.1 °C 30.20 in /  1022.6 hPa South 3.5 mph /  5.6 km/h 3.5 mph /  5.6 km/h 36 % 0.00 in /  0 mm
14:25 54.8 °F /  12.7 °C 26.9 °F /  -2.8 °C 30.20 in /  1022.6 hPa North 3.0 mph /  4.8 km/h 3.0 mph /  4.8 km/h 34 % 0.00 in /  0 mm
14:30 54.8 °F /  12.7 °C 27.6 °F /  -2.4 °C 30.20 in /  1022.6 hPa NW 2.3 mph /  3.7 km/h 2.3 mph /  3.7 km/h 35 % 0.00 in /  0 mm
14:35 55.0 °F /  12.8 °C 27.1 °F /  -2.7 °C 30.20 in /  1022.6 hPa WNW 3.5 mph /  5.6 km/h 3.5 mph /  5.6 km/h 34 % 0.00 in /  0 mm
14:40 54.7 °F /  12.6 °C 27.6 °F /  -2.4 °C 30.19 in /  1022.2 hPa West 2.3 mph /  3.7 km/h   35 % 0.00 in /  0 mm
14:45 54.8 °F /  12.7 °C 25.5 °F /  -3.6 °C 30.19 in /  1022.2 hPa NW 3.5 mph /  5.6 km/h 3.5 mph /  5.6 km/h 32 % 0.00 in /  0 mm
14:50 54.5 °F /  12.5 °C 26.7 °F /  -2.9 °C 30.19 in /  1022.2 hPa South 1.2 mph /  1.9 km/h 1.2 mph /  1.9 km/h 34 % 0.00 in /  0 mm
14:55 54.9 °F /  12.7 °C 27.7 °F /  -2.4 °C 30.19 in /  1022.2 hPa SSW 3.5 mph /  5.6 km/h 3.5 mph /  5.6 km/h 35 % 0.00 in /  0 mm
15:00 55.1 °F /  12.8 °C 27.9 °F /  -2.3 °C 30.19 in /  1022.2 hPa ESE 3.5 mph /  5.6 km/h 3.5 mph /  5.6 km/h 35 % 0.00 in /  0 mm
15:05 54.8 °F /  12.7 °C 27.6 °F /  -2.4 °C 30.19 in /  1022.2 hPa SW 3.5 mph /  5.6 km/h 3.5 mph /  5.6 km/h 35 % 0.00 in /  0 mm
15:10 54.9 °F /  12.7 °C 27.0 °F /  -2.8 °C 30.19 in /  1022.2 hPa Calm     34 % 0.00 in /  0 mm
15:15 54.4 °F /  12.4 °C 25.9 °F /  -3.4 °C 30.19 in /  1022.2 hPa West 1.2 mph /  1.9 km/h   33 % 0.00 in /  0 mm
15:20 54.1 °F /  12.3 °C 27.0 °F /  -2.8 °C 30.19 in /  1022.2 hPa SSE 2.0 mph /  3.2 km/h 2.0 mph /  3.2 km/h 35 % 0.00 in /  0 mm
15:25 53.9 °F /  12.2 °C 26.8 °F /  -2.9 °C 30.19 in /  1022.2 hPa North 1.2 mph /  1.9 km/h 1.2 mph /  1.9 km/h 35 % 0.00 in /  0 mm
15:30 53.9 °F /  12.2 °C 27.5 °F /  -2.5 °C 30.19 in /  1022.2 hPa SSW 1.2 mph /  1.9 km/h 1.2 mph /  1.9 km/h 36 % 0.00 in /  0 mm
15:35 53.9 °F /  12.2 °C 26.8 °F /  -2.9 °C 30.19 in /  1022.2 hPa NW 3.5 mph /  5.6 km/h 3.5 mph /  5.6 km/h 35 % 0.00 in /  0 mm
15:40 53.6 °F /  12 °C 26.6 °F /  -3 °C 30.19 in /  1022.2 hPa NNW 1.2 mph /  1.9 km/h 1.2 mph /  1.9 km/h 35 % 0.00 in /  0 mm
15:45 53.4 °F /  11.9 °C 26.4 °F /  -3.1 °C 30.19 in /  1022.2 hPa NW 3.5 mph /  5.6 km/h 3.5 mph /  5.6 km/h 35 % 0.00 in /  0 mm
15:50 53.2 °F /  11.8 °C 26.2 °F /  -3.2 °C 30.19 in /  1022.2 hPa WSW 3.5 mph /  5.6 km/h 3.5 mph /  5.6 km/h 35 % 0.00 in /  0 mm
15:55 53.1 °F /  11.7 °C 26.1 °F /  -3.3 °C 30.19 in /  1022.2 hPa WSW 3.5 mph /  5.6 km/h 3.5 mph /  5.6 km/h 35 % 0.00 in /  0 mm
16:00 53.0 °F /  11.7 °C 25.3 °F /  -3.7 °C 30.19 in /  1022.2 hPa West 2.3 mph /  3.7 km/h   34 % 0.00 in /  0 mm
16:05 53.0 °F /  11.7 °C 26.0 °F /  -3.3 °C 30.19 in /  1022.2 hPa NNW 1.2 mph /  1.9 km/h 1.2 mph /  1.9 km/h 35 % 0.00 in /  0 mm
16:10 52.9 °F /  11.6 °C 25.3 °F /  -3.7 °C 30.19 in /  1022.2 hPa NW 2.3 mph /  3.7 km/h   34 % 0.00 in /  0 mm
16:15 52.9 °F /  11.6 °C 26.0 °F /  -3.3 °C 30.19 in /  1022.2 hPa Calm     35 % 0.00 in /  0 mm
16:20 52.8 °F /  11.6 °C 25.9 °F /  -3.4 °C 30.19 in /  1022.2 hPa WNW 2.3 mph /  3.7 km/h 2.3 mph /  3.7 km/h 35 % 0.00 in /  0 mm
16:25 52.5 °F /  11.4 °C 24.9 °F /  -3.9 °C 30.19 in /  1022.2 hPa Calm     34 % 0.00 in /  0 mm
16:30 52.3 °F /  11.3 °C 25.4 °F /  -3.7 °C 30.19 in /  1022.2 hPa Calm     35 % 0.00 in /  0 mm
16:36 52.3 °F /  11.3 °C 26.1 °F /  -3.3 °C 30.19 in /  1022.2 hPa NW 1.0 mph /  1.6 km/h   36 % 0.00 in /  0 mm
16:41 52.4 °F /  11.3 °C 25.5 °F /  -3.6 °C 30.19 in /  1022.2 hPa NNW 1.2 mph /  1.9 km/h   35 % 0.00 in /  0 mm
16:46 52.3 °F /  11.3 °C 24.7 °F /  -4.1 °C 30.19 in /  1022.2 hPa Calm     34 % 0.00 in /  0 mm
16:51 52.1 °F /  11.2 °C 26.6 °F /  -3 °C 30.18 in /  1021.9 hPa Calm   0.1 mph /  0.2 km/h 37 % 0.00 in /  0 mm
16:56 51.9 °F /  11.1 °C 27.1 °F /  -2.7 °C 30.19 in /  1022.2 hPa Calm     38 % 0.00 in /  0 mm
17:01 51.7 °F /  10.9 °C 26.9 °F /  -2.8 °C 30.18 in /  1021.9 hPa Calm     38 % 0.00 in /  0 mm
17:05 51.7 °F /  10.9 °C 25.6 °F /  -3.6 °C 30.18 in /  1021.9 hPa Calm     36 % 0.00 in /  0 mm
17:10 51.6 °F /  10.9 °C 24.8 °F /  -4 °C 30.18 in /  1021.9 hPa Calm     35 % 0.00 in /  0 mm
17:16 51.3 °F /  10.7 °C 24.5 °F /  -4.2 °C 30.18 in /  1021.9 hPa Calm     35 % 0.00 in /  0 mm
17:20 51.0 °F /  10.6 °C 24.3 °F /  -4.3 °C 30.18 in /  1021.9 hPa Calm     35 % 0.00 in /  0 mm
17:25 50.7 °F /  10.4 °C 24.0 °F /  -4.4 °C 30.18 in /  1021.9 hPa Calm     35 % 0.00 in /  0 mm
17:35 50.1 °F /  10.1 °C 22.8 °F /  -5.1 °C 30.18 in /  1021.9 hPa Calm     34 % 0.00 in /  0 mm
17:41 49.8 °F /  9.9 °C 25.2 °F /  -3.8 °C 30.18 in /  1021.9 hPa Calm     38 % 0.00 in /  0 mm
17:46 49.5 °F /  9.7 °C 24.3 °F /  -4.3 °C 30.18 in /  1021.9 hPa Calm     37 % 0.00 in /  0 mm
17:51 49.1 °F /  9.5 °C 26.4 °F /  -3.1 °C 30.18 in /  1021.9 hPa Calm     41 % 0.00 in /  0 mm
17:56 48.6 °F /  9.2 °C 27.6 °F /  -2.4 °C 30.18 in /  1021.9 hPa Calm     44 % 0.00 in /  0 mm
18:01 48.2 °F /  9 °C 26.7 °F /  -2.9 °C 30.18 in /  1021.9 hPa Calm     43 % 0.00 in /  0 mm
18:06 47.5 °F /  8.6 °C 27.2 °F /  -2.7 °C 30.18 in /  1021.9 hPa Calm     45 % 0.00 in /  0 mm
18:11 47.2 °F /  8.4 °C 27.5 °F /  -2.5 °C 30.18 in /  1021.9 hPa Calm     46 % 0.00 in /  0 mm
18:16 46.9 °F /  8.3 °C 27.2 °F /  -2.7 °C 30.18 in /  1021.9 hPa Calm     46 % 0.00 in /  0 mm
18:21 46.4 °F /  8 °C 26.7 °F /  -2.9 °C 30.18 in /  1021.9 hPa Calm     46 % 0.00 in /  0 mm
18:26 46.1 °F /  7.8 °C 28.5 °F /  -1.9 °C 30.18 in /  1021.9 hPa Calm     50 % 0.00 in /  0 mm
18:31 45.8 °F /  7.7 °C 27.7 °F /  -2.4 °C 30.18 in /  1021.9 hPa Calm     49 % 0.00 in /  0 mm
18:36 45.5 °F /  7.5 °C 28.9 °F /  -1.7 °C 30.18 in /  1021.9 hPa SSE 1.2 mph /  1.9 km/h 1.2 mph /  1.9 km/h 52 % 0.00 in /  0 mm
18:41 44.9 °F /  7.2 °C 28.8 °F /  -1.8 °C 30.18 in /  1021.9 hPa Calm     53 % 0.00 in /  0 mm
18:46 44.6 °F /  7 °C 27.1 °F /  -2.7 °C 30.18 in /  1021.9 hPa Calm     50 % 0.00 in /  0 mm
18:51 44.4 °F /  6.9 °C 26.9 °F /  -2.8 °C 30.18 in /  1021.9 hPa Calm     50 % 0.00 in /  0 mm
18:56 44.0 °F /  6.7 °C 28.0 °F /  -2.2 °C 30.18 in /  1021.9 hPa Calm     53 % 0.00 in /  0 mm
19:01 43.5 °F /  6.4 °C 28.8 °F /  -1.8 °C 30.18 in /  1021.9 hPa Calm     56 % 0.00 in /  0 mm
19:06 43.4 °F /  6.3 °C 30.8 °F /  -0.7 °C 30.18 in /  1021.9 hPa Calm     61 % 0.00 in /  0 mm
19:11 43.3 °F /  6.3 °C 29.5 °F /  -1.4 °C 30.18 in /  1021.9 hPa Calm     58 % 0.00 in /  0 mm
19:16 43.1 °F /  6.2 °C 31.0 °F /  -0.6 °C 30.18 in /  1021.9 hPa Calm     62 % 0.00 in /  0 mm
19:21 42.7 °F /  5.9 °C 32.5 °F /  0.3 °C 30.18 in /  1021.9 hPa Calm     67 % 0.00 in /  0 mm
19:26 41.8 °F /  5.4 °C 31.6 °F /  -0.2 °C 30.18 in /  1021.9 hPa Calm     67 % 0.00 in /  0 mm
19:31 41.4 °F /  5.2 °C 30.9 °F /  -0.6 °C 30.19 in /  1022.2 hPa Calm     66 % 0.00 in /  0 mm
19:36 41.4 °F /  5.2 °C 30.5 °F /  -0.8 °C 30.19 in /  1022.2 hPa Calm     65 % 0.00 in /  0 mm
19:41 41.2 °F /  5.1 °C 30.3 °F /  -0.9 °C 30.19 in /  1022.2 hPa Calm     65 % 0.00 in /  0 mm
19:46 40.9 °F /  4.9 °C 30.0 °F /  -1.1 °C 30.19 in /  1022.2 hPa Calm     65 % 0.00 in /  0 mm
19:51 40.6 °F /  4.8 °C 30.9 °F /  -0.6 °C 30.19 in /  1022.2 hPa Calm     68 % 0.00 in /  0 mm
19:56 40.6 °F /  4.8 °C 31.6 °F /  -0.2 °C 30.19 in /  1022.2 hPa Calm     70 % 0.00 in /  0 mm
20:01 40.5 °F /  4.7 °C 32.2 °F /  0.1 °C 30.19 in /  1022.2 hPa Calm     72 % 0.00 in /  0 mm
20:06 40.3 °F /  4.6 °C 32.0 °F /  0 °C 30.19 in /  1022.2 hPa Calm     72 % 0.00 in /  0 mm
20:11 40.0 °F /  4.4 °C 31.4 °F /  -0.3 °C 30.19 in /  1022.2 hPa Calm     71 % 0.00 in /  0 mm
20:16 39.7 °F /  4.3 °C 31.4 °F /  -0.3 °C 30.19 in /  1022.2 hPa Calm     72 % 0.00 in /  0 mm
20:21 39.5 °F /  4.2 °C 31.2 °F /  -0.4 °C 30.20 in /  1022.6 hPa Calm     72 % 0.00 in /  0 mm
20:26 39.6 °F /  4.2 °C 31.3 °F /  -0.4 °C 30.20 in /  1022.6 hPa Calm     72 % 0.00 in /  0 mm
20:31 39.9 °F /  4.4 °C 31.3 °F /  -0.4 °C 30.20 in /  1022.6 hPa Calm     71 % 0.00 in /  0 mm
20:36 40.1 °F /  4.5 °C 30.7 °F /  -0.7 °C 30.20 in /  1022.6 hPa Calm     69 % 0.00 in /  0 mm
20:41 40.2 °F /  4.6 °C 30.5 °F /  -0.8 °C 30.20 in /  1022.6 hPa Calm     68 % 0.00 in /  0 mm
20:46 40.6 °F /  4.8 °C 30.5 °F /  -0.8 °C 30.20 in /  1022.6 hPa Calm     67 % 0.00 in /  0 mm
20:51 40.9 °F /  4.9 °C 30.8 °F /  -0.7 °C 30.20 in /  1022.6 hPa Calm     67 % 0.00 in /  0 mm
20:56 40.9 °F /  4.9 °C 30.4 °F /  -0.9 °C 30.20 in /  1022.6 hPa Calm     66 % 0.00 in /  0 mm
21:01 40.9 °F /  4.9 °C 30.4 °F /  -0.9 °C 30.20 in /  1022.6 hPa Calm     66 % 0.00 in /  0 mm
21:06 41.1 °F /  5.1 °C 31.0 °F /  -0.6 °C 30.20 in /  1022.6 hPa Calm     67 % 0.00 in /  0 mm
21:11 41.4 °F /  5.2 °C 32.0 °F /  0 °C 30.20 in /  1022.6 hPa Calm     69 % 0.00 in /  0 mm
21:16 41.7 °F /  5.4 °C 31.9 °F /  -0.1 °C 30.20 in /  1022.6 hPa Calm     68 % 0.00 in /  0 mm
21:21 41.8 °F /  5.4 °C 32.4 °F /  0.2 °C 30.20 in /  1022.6 hPa Calm     69 % 0.00 in /  0 mm
21:26 41.6 °F /  5.3 °C 31.8 °F /  -0.1 °C 30.20 in /  1022.6 hPa Calm     68 % 0.00 in /  0 mm
21:31 41.5 °F /  5.3 °C 30.6 °F /  -0.8 °C 30.20 in /  1022.6 hPa Calm     65 % 0.00 in /  0 mm
21:36 41.5 °F /  5.3 °C 31.4 °F /  -0.3 °C 30.20 in /  1022.6 hPa Calm     67 % 0.00 in /  0 mm
21:41 41.6 °F /  5.3 °C 32.2 °F /  0.1 °C 30.20 in /  1022.6 hPa Calm     69 % 0.00 in /  0 mm
21:46 41.5 °F /  5.3 °C 32.4 °F /  0.2 °C 30.20 in /  1022.6 hPa Calm     70 % 0.00 in /  0 mm
21:51 41.4 °F /  5.2 °C 32.3 °F /  0.2 °C 30.20 in /  1022.6 hPa Calm     70 % 0.00 in /  0 mm
21:56 41.3 °F /  5.2 °C 32.2 °F /  0.1 °C 30.20 in /  1022.6 hPa Calm     70 % 0.00 in /  0 mm
22:01 41.3 °F /  5.2 °C 32.2 °F /  0.1 °C 30.20 in /  1022.6 hPa Calm     70 % 0.00 in /  0 mm
22:06 41.2 °F /  5.1 °C 32.2 °F /  0.1 °C 30.21 in /  1022.9 hPa Calm     70 % 0.00 in /  0 mm
22:11 41.1 °F /  5.1 °C 33.4 °F /  0.8 °C 30.21 in /  1022.9 hPa Calm     74 % 0.00 in /  0 mm
22:16 41.0 °F /  5 °C 33.3 °F /  0.7 °C 30.20 in /  1022.6 hPa Calm     74 % 0.00 in /  0 mm
22:21 40.9 °F /  4.9 °C 33.2 °F /  0.7 °C 30.21 in /  1022.9 hPa Calm     74 % 0.00 in /  0 mm
22:26 40.7 °F /  4.8 °C 32.4 °F /  0.2 °C 30.21 in /  1022.9 hPa Calm     72 % 0.00 in /  0 mm
22:31 40.6 °F /  4.8 °C 31.9 °F /  -0.1 °C 30.21 in /  1022.9 hPa Calm     71 % 0.00 in /  0 mm
22:33 40.6 °F /  4.8 °C 31.9 °F /  -0.1 °C 30.21 in /  1022.9 hPa Calm     71 % 0.00 in /  0 mm
22:38 40.5 °F /  4.7 °C 32.2 °F /  0.1 °C 30.21 in /  1022.9 hPa Calm     72 % 0.00 in /  0 mm
22:43 40.4 °F /  4.7 °C 32.1 °F /  0.1 °C 30.21 in /  1022.9 hPa Calm     72 % 0.00 in /  0 mm
22:48 40.4 °F /  4.7 °C 32.1 °F /  0.1 °C 30.21 in /  1022.9 hPa Calm     72 % 0.00 in /  0 mm
22:53 40.4 °F /  4.7 °C 32.4 °F /  0.2 °C 30.21 in /  1022.9 hPa Calm     73 % 0.00 in /  0 mm
22:58 40.3 °F /  4.6 °C 32.7 °F /  0.4 °C 30.21 in /  1022.9 hPa Calm     74 % 0.00 in /  0 mm
23:03 40.3 °F /  4.6 °C 32.7 °F /  0.4 °C 30.21 in /  1022.9 hPa Calm     74 % 0.00 in /  0 mm
23:08 40.1 °F /  4.5 °C 32.1 °F /  0.1 °C 30.21 in /  1022.9 hPa Calm     73 % 0.00 in /  0 mm
23:13 40.2 °F /  4.6 °C 32.2 °F /  0.1 °C 30.21 in /  1022.9 hPa Calm     73 % 0.00 in /  0 mm
23:18 40.1 °F /  4.5 °C 31.8 °F /  -0.1 °C 30.21 in /  1022.9 hPa Calm     72 % 0.00 in /  0 mm
23:23 40.1 °F /  4.5 °C 32.1 °F /  0.1 °C 30.21 in /  1022.9 hPa Calm     73 % 0.00 in /  0 mm
23:28 40.1 °F /  4.5 °C 32.5 °F /  0.3 °C 30.20 in /  1022.6 hPa Calm     74 % 0.00 in /  0 mm
23:33 40.1 °F /  4.5 °C 31.8 °F /  -0.1 °C 30.20 in /  1022.6 hPa Calm     72 % 0.00 in /  0 mm
23:38 40.5 °F /  4.7 °C 30.8 °F /  -0.7 °C 30.20 in /  1022.6 hPa Calm     68 % 0.00 in /  0 mm
23:43 40.8 °F /  4.9 °C 30.7 °F /  -0.7 °C 30.20 in /  1022.6 hPa Calm     67 % 0.00 in /  0 mm
23:48 41.0 °F /  5 °C 30.5 °F /  -0.8 °C 30.20 in /  1022.6 hPa Calm     66 % 0.00 in /  0 mm
23:53 41.2 °F /  5.1 °C 29.9 °F /  -1.2 °C 30.20 in /  1022.6 hPa ESE 1.2 mph /  1.9 km/h   64 % 0.00 in /  0 mm
23:58 41.5 °F /  5.3 °C 29.8 °F /  -1.2 °C 30.20 in /  1022.6 hPa Calm     63 % 0.00 in /  0 mm
Park Place, Exeter, Tulare County, California, USA
Compliments of Weather Underground - 2.75 mb